Airfield :
LOGIN :

Register | Disclaimer

   EN    FR    IT 

 










Legend :    VFR   Marginal VFR   IFR   Intensive IFR   Very Intensive IFR
Visi :
Ceiling :
>= 8 km
>= 3000ft
5 to 8 km
1000 to 3000 ft
1500m to 5 km
500 to 1000 ft
800 to 1500m
200 to 500 ft
< 800m
< 200 ft
Symbols :   Thunderstorms  Fog  Heavy snow  Heavy precipitations  Wind > 20 kt
SIGMETs :     Misc.  Thunderstorms  Icing  Turbulence  Mountain Waves  Volcanic Ashes







- Airport Elevation : 600 ft
- IATA code : VIE


LOWW - Vienna Schwechat

CURRENT METAR :
  • 231720Z 31005KT 9999 FEW022 BKN028 05/03 Q1027 R88/19//95 NOSIG

EXPIRED METARs :
  • 231650Z 30003KT 260V330 9999 FEW019 SCT028 BKN032 04/02 Q1027 R88/19//95 NOSIG
  • 231620Z VRB01KT 9999 FEW020 BKN030 04/02 Q1027 R88/19//95 NOSIG
  • 231550Z 06003KT 040V190 9999 FEW019 SCT022 BKN070 04/02 Q1026 R88/19//95 BECMG 4500 BR
  • 231520Z 03004KT 320V060 9999 FEW018 SCT026 BKN078 04/03 Q1026 R88/19//95 NOSIG
  • 231450Z 35003KT 9999 FEW019 SCT026 BKN028 05/03 Q1026 R88/19//95 NOSIG

TAF TAF LOWW
Valid from the 23 at 18:00 until the 25 at 00:00 UTC


231715Z 2318/2424 30005KT 9999 FEW020 BKN030 TX04/2413Z TN00/2404Z
BECMG 2318/2320 13005KT
BECMG 2321/2323 3000 BR SCT030
PROB40
TEMPO 2402/2406 0500 FZFG VV001
PROB30
TEMPO 2406/2408 -FZRA SCT008 BKN030
BECMG 2410/2413 8000 NSW BKN040
No reported NOTAMs for that airfield.



MET'MAP, your aeronautical weather chart ! - Copyright ORBIFLY December 2007 - Disclaimer

ORBIFLY MET'MAP TEAM :

Programming & Development : Alexandra Zaïnal
Concept & Development : Baudouin d'Aumeries
Co-Development & Prog : Marc-Olivier Méhu
Technical & hardware support : Manuel Goepfert

Contact : metmap@orbifly.com




SOURCES & CREDITS :

   NOAA